createdAt,value
2023-03-17T00:00:25.327Z,0.00
2023-03-17T00:01:25.295Z,0.00
2023-03-17T00:02:25.325Z,0.00
2023-03-17T00:03:25.270Z,0.00
2023-03-17T00:04:25.244Z,0.00
2023-03-17T00:05:25.196Z,0.00
2023-03-17T00:06:25.166Z,0.00
2023-03-17T00:07:25.140Z,0.00
2023-03-17T00:08:25.109Z,0.00
2023-03-17T00:09:25.083Z,0.00
2023-03-17T00:10:25.089Z,0.00
2023-03-17T00:11:25.036Z,0.00
2023-03-17T00:12:25.006Z,0.00
2023-03-17T00:13:24.982Z,0.00
2023-03-17T00:14:24.952Z,0.00
2023-03-17T00:15:24.927Z,0.00
2023-03-17T00:16:24.905Z,0.00
2023-03-17T00:17:24.877Z,0.00
2023-03-17T00:18:24.851Z,0.00
2023-03-17T00:19:24.822Z,0.00
2023-03-17T00:20:24.794Z,0.00
2023-03-17T00:21:24.777Z,0.00
2023-03-17T00:22:24.745Z,0.00
2023-03-17T00:23:24.719Z,0.00
2023-03-17T00:24:24.692Z,0.00
2023-03-17T00:25:24.662Z,0.00
2023-03-17T00:26:24.665Z,0.00
2023-03-17T00:27:24.614Z,0.00
2023-03-17T00:28:24.596Z,0.00
2023-03-17T00:29:24.564Z,0.00
2023-03-17T00:30:24.546Z,0.00
2023-03-17T00:31:24.558Z,0.00
2023-03-17T00:32:24.488Z,0.00
2023-03-17T00:33:24.459Z,0.00
2023-03-17T00:34:24.432Z,0.00
2023-03-17T00:35:24.489Z,0.00
2023-03-17T00:36:24.378Z,0.00
2023-03-17T00:37:24.351Z,0.00
2023-03-17T00:38:24.328Z,0.00
2023-03-17T00:39:24.301Z,0.00
2023-03-17T00:40:24.272Z,0.00
2023-03-17T00:41:24.249Z,0.00
2023-03-17T00:42:24.243Z,0.00
2023-03-17T00:43:24.208Z,0.00
2023-03-17T00:44:24.221Z,0.00
2023-03-17T00:45:24.137Z,0.00
2023-03-17T00:46:24.143Z,0.00
2023-03-17T00:47:24.089Z,0.00
2023-03-17T00:48:24.056Z,0.00
2023-03-17T00:49:24.044Z,0.00
2023-03-17T00:50:23.999Z,0.00
2023-03-17T00:51:23.977Z,0.00
2023-03-17T00:52:23.953Z,0.00
2023-03-17T00:53:23.926Z,0.00
2023-03-17T00:54:23.895Z,0.00
2023-03-17T00:55:23.882Z,0.00
2023-03-17T00:56:23.844Z,0.00
2023-03-17T00:57:23.828Z,0.00
2023-03-17T00:58:23.826Z,0.00
2023-03-17T00:59:23.766Z,0.00
2023-03-17T01:00:23.736Z,0.00
2023-03-17T01:01:23.802Z,0.00
2023-03-17T01:02:23.752Z,0.00
2023-03-17T01:03:23.662Z,0.00
2023-03-17T01:04:23.631Z,0.00
2023-03-17T01:05:23.610Z,0.00
2023-03-17T01:06:23.581Z,0.00
2023-03-17T01:07:23.555Z,0.00
2023-03-17T01:08:23.531Z,0.00
2023-03-17T01:09:23.510Z,0.00
2023-03-17T01:10:23.474Z,0.00
2023-03-17T01:11:23.452Z,0.00
2023-03-17T01:12:23.421Z,0.00
2023-03-17T01:13:23.401Z,0.00
2023-03-17T01:14:23.396Z,0.00
2023-03-17T01:15:23.346Z,0.00
2023-03-17T01:16:23.368Z,0.00
2023-03-17T01:17:23.293Z,0.00
2023-03-17T01:18:23.345Z,0.00
2023-03-17T01:19:23.240Z,0.00
2023-03-17T01:20:23.207Z,0.00
2023-03-17T01:21:23.192Z,0.00
2023-03-17T01:22:23.162Z,0.00
2023-03-17T01:23:23.155Z,0.00
2023-03-17T01:24:23.109Z,0.00
2023-03-17T01:25:23.080Z,0.00
2023-03-17T01:26:25.723Z,0.00
2023-03-17T01:27:23.032Z,0.00
2023-03-17T01:28:23.000Z,0.00
2023-03-17T01:29:22.980Z,0.00
2023-03-17T01:30:22.971Z,0.00
2023-03-17T01:31:23.059Z,0.00
2023-03-17T01:32:22.905Z,0.00
2023-03-17T01:33:22.874Z,0.00
2023-03-17T01:34:22.843Z,0.00
2023-03-17T01:35:22.824Z,0.00
2023-03-17T01:36:22.790Z,0.00
2023-03-17T01:37:22.770Z,0.00
2023-03-17T01:38:22.743Z,0.00
2023-03-17T01:39:22.728Z,0.00
2023-03-17T01:40:22.685Z,0.00
2023-03-17T01:41:22.662Z,0.00
2023-03-17T01:42:22.638Z,0.00
2023-03-17T01:43:22.609Z,0.00
2023-03-17T01:44:22.582Z,0.00
2023-03-17T01:45:22.562Z,0.00
2023-03-17T01:46:22.595Z,0.00
2023-03-17T01:47:22.504Z,0.00
2023-03-17T01:48:22.478Z,0.00
2023-03-17T01:49:22.458Z,0.00
2023-03-17T01:50:22.423Z,0.00
2023-03-17T01:51:22.395Z,0.00
2023-03-17T01:52:22.386Z,0.00
2023-03-17T01:53:22.354Z,0.00
2023-03-17T01:54:22.312Z,0.00
2023-03-17T01:55:22.294Z,0.00
2023-03-17T01:56:22.284Z,0.00
2023-03-17T01:57:22.249Z,0.00
2023-03-17T01:58:22.220Z,0.00
2023-03-17T01:59:22.186Z,0.00
2023-03-17T02:00:22.167Z,0.00
2023-03-17T02:01:22.179Z,0.00
2023-03-17T02:02:22.132Z,0.00
2023-03-17T02:03:22.086Z,0.00
2023-03-17T02:04:22.129Z,0.00
2023-03-17T02:05:22.031Z,0.00
2023-03-17T02:06:22.004Z,0.00
2023-03-17T02:07:21.978Z,0.00
2023-03-17T02:08:21.952Z,0.00
2023-03-17T02:09:21.931Z,0.00
2023-03-17T02:10:21.905Z,0.00
2023-03-17T02:11:21.873Z,0.00
2023-03-17T02:12:21.846Z,0.00
2023-03-17T02:13:21.825Z,0.00
2023-03-17T02:14:21.792Z,0.00
2023-03-17T02:15:21.787Z,0.00
2023-03-17T02:16:21.793Z,0.00
2023-03-17T02:17:21.718Z,0.00
2023-03-17T02:18:21.748Z,0.00
2023-03-17T02:19:21.697Z,0.00
2023-03-17T02:20:21.641Z,0.00
2023-03-17T02:21:21.611Z,0.00
2023-03-17T02:22:21.584Z,0.00
2023-03-17T02:23:21.560Z,0.00
2023-03-17T02:24:21.528Z,0.00
2023-03-17T02:25:21.534Z,0.00
2023-03-17T02:26:21.486Z,0.00
2023-03-17T02:27:21.466Z,0.00
2023-03-17T02:28:21.434Z,0.00
2023-03-17T02:29:21.420Z,0.00
2023-03-17T02:30:21.377Z,0.00
2023-03-17T02:31:21.452Z,0.00
2023-03-17T02:32:21.326Z,0.00
2023-03-17T02:33:21.295Z,0.00
2023-03-17T02:34:21.286Z,0.00
2023-03-17T02:35:21.241Z,0.00
2023-03-17T02:36:21.271Z,0.00
2023-03-17T02:37:21.192Z,0.00
2023-03-17T02:38:21.164Z,0.00
2023-03-17T02:39:21.141Z,0.00
2023-03-17T02:40:21.111Z,0.00
2023-03-17T02:41:21.093Z,0.00
2023-03-17T02:42:21.063Z,0.00
2023-03-17T02:43:21.034Z,0.00
2023-03-17T02:44:21.013Z,0.00
2023-03-17T02:45:20.995Z,0.00
2023-03-17T02:46:20.993Z,0.00
2023-03-17T02:47:20.931Z,0.00
2023-03-17T02:48:20.918Z,0.00
2023-03-17T02:49:20.881Z,0.00
2023-03-17T02:50:20.877Z,0.00
2023-03-17T02:51:20.830Z,0.00
2023-03-17T02:52:20.804Z,0.00
2023-03-17T02:53:20.773Z,0.00
2023-03-17T02:54:20.751Z,0.00
2023-03-17T02:55:20.729Z,0.00
2023-03-17T02:56:20.702Z,0.00
2023-03-17T02:57:20.666Z,0.00
2023-03-17T02:58:20.639Z,0.00
2023-03-17T02:59:20.616Z,0.00
2023-03-17T03:00:20.591Z,0.00
2023-03-17T03:01:20.582Z,0.00
2023-03-17T03:02:20.572Z,0.00
2023-03-17T03:03:20.508Z,0.00
2023-03-17T03:04:20.488Z,0.00
2023-03-17T03:05:20.455Z,0.00
2023-03-17T03:06:20.456Z,0.00
2023-03-17T03:07:20.401Z,0.00
2023-03-17T03:08:20.378Z,0.00
2023-03-17T03:09:20.349Z,0.00
2023-03-17T03:10:20.326Z,0.00
2023-03-17T03:11:20.300Z,0.00
2023-03-17T03:12:20.276Z,0.00
2023-03-17T03:13:20.243Z,0.00
2023-03-17T03:14:20.235Z,0.00
2023-03-17T03:15:20.193Z,0.00
2023-03-17T03:16:20.269Z,0.00
2023-03-17T03:17:20.148Z,0.00
2023-03-17T03:18:20.120Z,0.00
2023-03-17T03:19:20.091Z,0.00
2023-03-17T03:20:20.067Z,0.00
2023-03-17T03:21:20.036Z,0.00
2023-03-17T03:22:20.078Z,0.00
2023-03-17T03:23:19.993Z,0.00
2023-03-17T03:24:19.963Z,0.00
2023-03-17T03:25:19.929Z,0.00
2023-03-17T03:26:19.913Z,0.00
2023-03-17T03:27:19.900Z,0.00
2023-03-17T03:28:19.857Z,0.00
2023-03-17T03:29:19.841Z,0.00
2023-03-17T03:30:19.799Z,0.00
2023-03-17T03:31:19.852Z,0.00
2023-03-17T03:32:19.763Z,0.00
2023-03-17T03:33:19.734Z,0.00
2023-03-17T03:34:19.694Z,0.00
2023-03-17T03:35:19.664Z,0.00
2023-03-17T03:36:19.644Z,0.00
2023-03-17T03:37:19.621Z,0.00
2023-03-17T03:38:19.629Z,0.00
2023-03-17T03:39:19.570Z,0.00
2023-03-17T03:40:19.541Z,0.00
2023-03-17T03:41:19.513Z,0.00
2023-03-17T03:42:19.491Z,0.00
2023-03-17T03:43:23.281Z,0.00
2023-03-17T03:44:19.427Z,0.00
2023-03-17T03:45:19.426Z,0.00
2023-03-17T03:46:19.438Z,0.00
2023-03-17T03:47:19.348Z,0.00
2023-03-17T03:48:19.322Z,0.00
2023-03-17T03:49:19.296Z,0.00
2023-03-17T03:50:19.268Z,0.00
2023-03-17T03:51:19.238Z,0.00
2023-03-17T03:52:19.213Z,0.00
2023-03-17T03:53:19.198Z,0.00
2023-03-17T03:54:19.205Z,0.00
2023-03-17T03:55:19.130Z,0.00
2023-03-17T03:56:19.117Z,0.00
2023-03-17T03:57:19.080Z,0.00
2023-03-17T03:58:19.059Z,0.00
2023-03-17T03:59:19.042Z,0.00
2023-03-17T04:00:19.003Z,0.00
2023-03-17T04:01:18.968Z,0.00
2023-03-17T04:02:19.103Z,0.00
2023-03-17T04:03:18.925Z,0.00
2023-03-17T04:04:18.953Z,0.00
2023-03-17T04:05:18.865Z,0.00
2023-03-17T04:06:18.846Z,0.00
2023-03-17T04:07:18.808Z,0.00
2023-03-17T04:08:18.791Z,0.00
2023-03-17T04:09:18.761Z,0.00
2023-03-17T04:10:18.758Z,0.00
2023-03-17T04:11:18.705Z,0.00
2023-03-17T04:12:18.694Z,0.00
2023-03-17T04:13:18.689Z,0.00
2023-03-17T04:14:18.644Z,0.00
2023-03-17T04:15:18.610Z,0.00
2023-03-17T04:16:18.604Z,0.00
2023-03-17T04:17:18.548Z,0.00
2023-03-17T04:18:18.527Z,0.00
2023-03-17T04:19:18.545Z,0.00
2023-03-17T04:20:18.484Z,0.00
2023-03-17T04:21:18.489Z,0.00
2023-03-17T04:22:18.416Z,0.00
2023-03-17T04:23:18.387Z,0.00
2023-03-17T04:24:18.365Z,0.00
2023-03-17T04:25:18.336Z,0.00
2023-03-17T04:26:18.332Z,0.00
2023-03-17T04:27:18.278Z,0.00
2023-03-17T04:28:18.253Z,0.00
2023-03-17T04:29:18.224Z,0.00
2023-03-17T04:30:18.204Z,0.00
2023-03-17T04:31:18.269Z,0.00
2023-03-17T04:32:18.151Z,0.00
2023-03-17T04:33:18.121Z,0.00
2023-03-17T04:34:18.110Z,0.00
2023-03-17T04:35:18.086Z,0.00
2023-03-17T04:36:18.045Z,0.00
2023-03-17T04:37:18.012Z,0.00
2023-03-17T04:38:17.992Z,0.00
2023-03-17T04:39:17.966Z,0.00
2023-03-17T04:40:17.936Z,0.00
2023-03-17T04:41:17.908Z,0.00
2023-03-17T04:42:17.903Z,0.00
2023-03-17T04:43:17.848Z,0.00
2023-03-17T04:44:17.829Z,0.00
2023-03-17T04:45:17.809Z,0.00
2023-03-17T04:46:17.787Z,0.00
2023-03-17T04:47:17.750Z,0.00
2023-03-17T04:48:17.724Z,0.00
2023-03-17T04:49:17.692Z,0.00
2023-03-17T04:50:17.667Z,0.00
2023-03-17T04:51:17.656Z,0.00
2023-03-17T04:52:17.618Z,0.00
2023-03-17T04:53:17.594Z,0.00
2023-03-17T04:54:17.572Z,0.00
2023-03-17T04:55:17.534Z,0.00
2023-03-17T04:56:17.518Z,0.00
2023-03-17T04:57:17.485Z,0.00
2023-03-17T04:58:29.972Z,0.00
2023-03-17T04:59:17.431Z,0.00
2023-03-17T05:00:17.416Z,0.00
2023-03-17T05:01:17.449Z,0.00
2023-03-17T05:02:17.420Z,0.00
2023-03-17T05:03:26.697Z,0.00
2023-03-17T05:04:30.744Z,0.00
2023-03-17T05:05:17.291Z,0.00
2023-03-17T05:06:17.243Z,0.00
2023-03-17T05:07:17.212Z,0.00
2023-03-17T05:08:17.194Z,0.00
2023-03-17T05:09:17.168Z,0.00
2023-03-17T05:10:17.146Z,0.00
2023-03-17T05:11:17.114Z,0.00
2023-03-17T05:12:17.088Z,0.00
2023-03-17T05:13:17.053Z,0.00
2023-03-17T05:14:17.051Z,0.00
2023-03-17T05:15:17.004Z,0.00
2023-03-17T05:16:17.051Z,0.00
2023-03-17T05:17:16.951Z,0.00
2023-03-17T05:18:16.924Z,0.00
2023-03-17T05:19:16.895Z,0.00
2023-03-17T05:20:16.873Z,0.00
2023-03-17T05:21:16.846Z,0.00
2023-03-17T05:22:16.832Z,0.00
2023-03-17T05:23:16.788Z,0.00
2023-03-17T05:24:16.793Z,0.00
2023-03-17T05:25:16.740Z,4.00
2023-03-17T05:26:16.711Z,4.00
2023-03-17T05:27:16.695Z,0.00
2023-03-17T05:28:16.665Z,0.00
2023-03-17T05:29:16.632Z,4.00
2023-03-17T05:30:16.627Z,4.00
2023-03-17T05:31:16.635Z,4.00
2023-03-17T05:32:16.554Z,4.00
2023-03-17T05:33:16.525Z,4.00
2023-03-17T05:34:16.498Z,4.00
2023-03-17T05:35:16.475Z,4.00
2023-03-17T05:36:16.451Z,4.00
2023-03-17T05:37:16.423Z,8.00
2023-03-17T05:38:16.396Z,4.00
2023-03-17T05:39:16.367Z,8.00
2023-03-17T05:40:16.354Z,8.00
2023-03-17T05:41:16.316Z,12.00
2023-03-17T05:42:16.286Z,12.00
2023-03-17T05:43:16.258Z,12.00
2023-03-17T05:44:16.237Z,12.00
2023-03-17T05:45:16.202Z,12.00
2023-03-17T05:46:17.995Z,16.00
2023-03-17T05:47:16.161Z,16.00
2023-03-17T05:48:16.129Z,16.00
2023-03-17T05:49:16.109Z,20.00
2023-03-17T05:50:16.080Z,20.00
2023-03-17T05:51:16.051Z,24.00
2023-03-17T05:52:16.029Z,24.00
2023-03-17T05:53:15.995Z,24.00
2023-03-17T05:54:15.971Z,28.00
2023-03-17T05:55:15.942Z,32.00
2023-03-17T05:56:15.938Z,28.00
2023-03-17T05:57:15.884Z,32.00
2023-03-17T05:58:15.860Z,36.00
2023-03-17T05:59:15.835Z,36.00
2023-03-17T06:00:15.812Z,40.00
2023-03-17T06:01:15.780Z,40.00
2023-03-17T06:02:15.825Z,44.00
2023-03-17T06:03:15.868Z,48.00
2023-03-17T06:04:15.712Z,44.00
2023-03-17T06:05:15.686Z,48.00
2023-03-17T06:06:15.651Z,52.00
2023-03-17T06:07:15.622Z,52.00
2023-03-17T06:08:15.600Z,56.00
2023-03-17T06:09:15.568Z,56.00
2023-03-17T06:10:15.540Z,60.00
2023-03-17T06:11:15.528Z,60.00
2023-03-17T06:12:15.497Z,64.00
2023-03-17T06:13:15.487Z,64.00
2023-03-17T06:14:15.438Z,64.00
2023-03-17T06:15:15.401Z,64.00
2023-03-17T06:16:15.472Z,68.00
2023-03-17T06:17:15.358Z,68.00
2023-03-17T06:18:15.355Z,68.00
2023-03-17T06:19:15.305Z,72.00
2023-03-17T06:20:15.274Z,72.00
2023-03-17T06:21:15.249Z,80.00
2023-03-17T06:22:15.222Z,84.00
2023-03-17T06:23:15.192Z,84.00
2023-03-17T06:24:15.177Z,84.00
2023-03-17T06:25:15.187Z,88.00
2023-03-17T06:26:15.120Z,100.00
2023-03-17T06:27:15.081Z,100.00
2023-03-17T06:28:15.064Z,100.00
2023-03-17T06:29:15.035Z,100.00
2023-03-17T06:30:15.007Z,108.00
2023-03-17T06:31:15.076Z,108.00
2023-03-17T06:32:20.661Z,112.00
2023-03-17T06:33:14.926Z,112.00
2023-03-17T06:34:14.922Z,112.00
2023-03-17T06:35:14.864Z,116.00
2023-03-17T06:36:14.842Z,120.00
2023-03-17T06:37:14.816Z,116.00
2023-03-17T06:38:14.789Z,128.00
2023-03-17T06:39:14.766Z,132.00
2023-03-17T06:40:14.740Z,132.00
2023-03-17T06:41:14.709Z,132.00
2023-03-17T06:42:14.687Z,128.00
2023-03-17T06:43:14.662Z,140.00
2023-03-17T06:44:14.632Z,148.00
2023-03-17T06:45:14.615Z,152.00
2023-03-17T06:46:14.619Z,156.00
2023-03-17T06:47:14.549Z,160.00
2023-03-17T06:48:14.536Z,160.00
2023-03-17T06:49:14.490Z,176.00
2023-03-17T06:50:14.490Z,192.00
2023-03-17T06:51:14.441Z,196.00
2023-03-17T06:52:14.414Z,196.00
2023-03-17T06:53:14.382Z,192.00
2023-03-17T06:54:14.374Z,192.00
2023-03-17T06:55:14.340Z,188.00
2023-03-17T06:56:28.908Z,184.00
2023-03-17T06:57:14.279Z,196.00
2023-03-17T06:58:14.255Z,204.00
2023-03-17T06:59:14.229Z,224.00
2023-03-17T07:00:14.348Z,240.00
2023-03-17T07:01:14.174Z,256.00
2023-03-17T07:02:14.148Z,276.00
2023-03-17T07:03:14.112Z,272.00
2023-03-17T07:04:14.145Z,264.00
2023-03-17T07:05:14.061Z,252.00
2023-03-17T07:06:14.057Z,240.00
2023-03-17T07:07:14.022Z,284.00
2023-03-17T07:08:13.982Z,308.00
2023-03-17T07:09:13.961Z,332.00
2023-03-17T07:10:13.932Z,344.00
2023-03-17T07:11:13.925Z,348.00
2023-03-17T07:12:13.877Z,340.00
2023-03-17T07:13:13.852Z,296.00
2023-03-17T07:14:13.833Z,288.00
2023-03-17T07:15:13.809Z,300.00
2023-03-17T07:16:13.785Z,340.00
2023-03-17T07:17:13.751Z,300.00
2023-03-17T07:18:13.719Z,316.00
2023-03-17T07:19:13.694Z,336.00
2023-03-17T07:20:13.672Z,260.00
2023-03-17T07:21:13.651Z,236.00
2023-03-17T07:22:13.657Z,344.00
2023-03-17T07:23:13.594Z,248.00
2023-03-17T07:24:13.570Z,340.00
2023-03-17T07:25:13.555Z,416.00
2023-03-17T07:26:13.527Z,392.00
2023-03-17T07:27:13.512Z,416.00
2023-03-17T07:28:13.461Z,500.00
2023-03-17T07:29:13.467Z,512.00
2023-03-17T07:30:13.401Z,508.00
2023-03-17T07:31:13.415Z,556.00
2023-03-17T07:32:13.345Z,576.00
2023-03-17T07:33:13.436Z,576.00
2023-03-17T07:34:13.297Z,580.00
2023-03-17T07:35:13.281Z,604.00
2023-03-17T07:36:13.239Z,584.00
2023-03-17T07:37:13.243Z,588.00
2023-03-17T07:38:13.250Z,488.00
2023-03-17T07:39:13.172Z,448.00
2023-03-17T07:40:13.133Z,464.00
2023-03-17T07:41:13.115Z,492.00
2023-03-17T07:42:13.120Z,548.00
2023-03-17T07:43:13.057Z,620.00
2023-03-17T07:44:13.027Z,588.00
2023-03-17T07:45:13.018Z,408.00
2023-03-17T07:46:13.061Z,536.00
2023-03-17T07:47:12.950Z,572.00
2023-03-17T07:48:12.933Z,592.00
2023-03-17T07:49:12.964Z,600.00
2023-03-17T07:50:12.879Z,660.00
2023-03-17T07:51:12.857Z,728.00
2023-03-17T07:52:12.872Z,672.00
2023-03-17T07:53:12.840Z,724.00
2023-03-17T07:54:15.008Z,812.00
2023-03-17T07:55:12.820Z,792.00
2023-03-17T07:56:12.722Z,808.00
2023-03-17T07:57:12.698Z,828.00
2023-03-17T07:58:15.185Z,812.00
2023-03-17T07:59:12.639Z,784.00
2023-03-17T08:00:12.658Z,804.00
2023-03-17T08:01:12.635Z,808.00
2023-03-17T08:02:12.636Z,788.00
2023-03-17T08:03:12.591Z,736.00
2023-03-17T08:04:12.513Z,824.00
2023-03-17T08:05:13.266Z,840.00
2023-03-17T08:06:12.455Z,872.00
2023-03-17T08:07:12.446Z,892.00
2023-03-17T08:08:12.443Z,928.00
2023-03-17T08:09:12.403Z,896.00
2023-03-17T08:10:12.419Z,816.00
2023-03-17T08:11:12.326Z,752.00
2023-03-17T08:12:12.304Z,692.00
2023-03-17T08:13:12.287Z,776.00
2023-03-17T08:14:12.246Z,760.00
2023-03-17T08:15:12.237Z,924.00
2023-03-17T08:16:12.229Z,944.00
2023-03-17T08:17:12.206Z,916.00
2023-03-17T08:18:12.146Z,868.00
2023-03-17T08:19:12.138Z,784.00
2023-03-17T08:20:12.146Z,792.00
2023-03-17T08:21:13.526Z,852.00
2023-03-17T08:22:12.095Z,860.00
2023-03-17T08:23:12.035Z,816.00
2023-03-17T08:24:12.012Z,788.00
2023-03-17T08:25:11.990Z,924.00
2023-03-17T08:26:11.962Z,948.00
2023-03-17T08:27:11.963Z,956.00
2023-03-17T08:28:11.894Z,964.00
2023-03-17T08:29:11.868Z,824.00
2023-03-17T08:30:11.843Z,948.00
2023-03-17T08:31:12.646Z,952.00
2023-03-17T08:32:11.813Z,936.00
2023-03-17T08:33:11.901Z,952.00
2023-03-17T08:34:11.749Z,968.00
2023-03-17T08:35:11.719Z,996.00
2023-03-17T08:36:11.716Z,820.00
2023-03-17T08:37:11.766Z,932.00
2023-03-17T08:38:11.657Z,888.00
2023-03-17T08:39:11.614Z,760.00
2023-03-17T08:40:11.590Z,860.00
2023-03-17T08:41:11.567Z,804.00
2023-03-17T08:42:11.571Z,804.00
2023-03-17T08:43:11.520Z,920.00
2023-03-17T08:44:11.488Z,928.00
2023-03-17T08:45:11.475Z,912.00
2023-03-17T08:46:11.474Z,916.00
2023-03-17T08:47:11.419Z,976.00
2023-03-17T08:48:11.389Z,900.00
2023-03-17T08:49:11.388Z,848.00
2023-03-17T08:50:11.352Z,716.00
2023-03-17T08:51:11.311Z,860.00
2023-03-17T08:52:11.281Z,864.00
2023-03-17T08:53:11.264Z,956.00
2023-03-17T08:54:11.236Z,940.00
2023-03-17T08:55:11.220Z,948.00
2023-03-17T08:56:11.189Z,876.00
2023-03-17T08:57:11.167Z,836.00
2023-03-17T08:58:11.161Z,532.00
2023-03-17T08:59:11.119Z,880.00
2023-03-17T09:00:11.172Z,868.00
2023-03-17T09:01:11.146Z,988.00
2023-03-17T09:02:11.132Z,980.00
2023-03-17T09:03:11.017Z,940.00
2023-03-17T09:04:10.988Z,940.00
2023-03-17T09:05:10.991Z,956.00
2023-03-17T09:06:10.954Z,936.00
2023-03-17T09:07:10.912Z,900.00
2023-03-17T09:08:10.935Z,896.00
2023-03-17T09:09:10.895Z,836.00
2023-03-17T09:10:10.855Z,772.00
2023-03-17T09:11:10.815Z,940.00
2023-03-17T09:12:10.788Z,980.00
2023-03-17T09:13:10.769Z,752.00
2023-03-17T09:14:10.757Z,840.00
2023-03-17T09:15:10.713Z,936.00
2023-03-17T09:16:10.759Z,884.00
2023-03-17T09:17:10.665Z,896.00
2023-03-17T09:18:10.639Z,988.00
2023-03-17T09:19:10.614Z,920.00
2023-03-17T09:20:10.584Z,916.00
2023-03-17T09:21:10.567Z,900.00
2023-03-17T09:22:10.544Z,892.00
2023-03-17T09:23:10.525Z,992.00
2023-03-17T09:24:10.493Z,1064.00
2023-03-17T09:25:10.468Z,1152.00
2023-03-17T09:26:10.447Z,1000.00
2023-03-17T09:27:10.416Z,1292.00
2023-03-17T09:28:10.393Z,1284.00
2023-03-17T09:29:10.372Z,1128.00
2023-03-17T09:30:10.370Z,1332.00
2023-03-17T09:31:10.335Z,1220.00
2023-03-17T09:32:10.311Z,1180.00
2023-03-17T09:33:10.403Z,1188.00
2023-03-17T09:34:10.245Z,1336.00
2023-03-17T09:35:10.220Z,1408.00
2023-03-17T09:36:10.397Z,1200.00
2023-03-17T09:37:10.171Z,1180.00
2023-03-17T09:38:10.150Z,1336.00
2023-03-17T09:39:10.124Z,1224.00
2023-03-17T09:40:10.104Z,908.00
2023-03-17T09:41:10.077Z,980.00
2023-03-17T09:42:10.050Z,984.00
2023-03-17T09:43:10.031Z,1072.00
2023-03-17T09:44:10.005Z,1200.00
2023-03-17T09:45:09.986Z,1256.00
2023-03-17T09:46:10.029Z,1288.00
2023-03-17T09:47:09.929Z,1020.00
2023-03-17T09:48:09.925Z,1204.00
2023-03-17T09:49:09.886Z,1156.00
2023-03-17T09:50:09.860Z,1128.00
2023-03-17T09:51:09.841Z,1076.00
2023-03-17T09:52:09.805Z,1164.00
2023-03-17T09:53:09.784Z,1208.00
2023-03-17T09:54:09.763Z,1212.00
2023-03-17T09:55:09.743Z,1200.00
2023-03-17T09:56:09.720Z,1200.00
2023-03-17T09:57:09.707Z,1156.00
2023-03-17T09:58:09.682Z,1140.00
2023-03-17T09:59:09.649Z,1120.00
2023-03-17T10:00:09.619Z,1112.00
2023-03-17T10:01:09.598Z,1088.00
2023-03-17T10:02:09.696Z,1112.00
2023-03-17T10:03:09.546Z,1184.00
2023-03-17T10:04:09.521Z,1204.00
2023-03-17T10:05:09.544Z,1112.00
2023-03-17T10:06:11.455Z,1168.00
2023-03-17T10:07:09.453Z,1104.00
2023-03-17T10:08:26.944Z,1132.00
2023-03-17T10:09:09.408Z,1012.00
2023-03-17T10:10:09.372Z,1116.00
2023-03-17T10:11:09.359Z,1084.00
2023-03-17T10:12:09.326Z,1128.00
2023-03-17T10:13:09.312Z,1160.00
2023-03-17T10:14:09.282Z,1208.00
2023-03-17T10:15:09.262Z,1184.00
2023-03-17T10:16:09.255Z,1216.00
2023-03-17T10:17:09.224Z,1212.00
2023-03-17T10:18:09.215Z,1240.00
2023-03-17T10:19:09.171Z,1172.00
2023-03-17T10:20:09.179Z,1136.00
2023-03-17T10:21:09.133Z,1152.00
2023-03-17T10:22:09.104Z,1208.00
2023-03-17T10:23:09.076Z,1228.00
2023-03-17T10:24:09.049Z,1216.00
2023-03-17T10:25:09.022Z,1136.00
2023-03-17T10:26:08.996Z,1280.00
2023-03-17T10:27:08.983Z,1300.00
2023-03-17T10:28:09.263Z,1296.00
2023-03-17T10:29:08.932Z,1272.00
2023-03-17T10:30:08.905Z,1288.00
2023-03-17T10:31:08.947Z,1312.00
2023-03-17T10:32:08.862Z,1284.00
2023-03-17T10:33:08.982Z,1264.00
2023-03-17T10:34:08.836Z,1272.00
2023-03-17T10:35:08.809Z,1256.00
2023-03-17T10:36:08.765Z,1268.00
2023-03-17T10:37:08.742Z,1356.00
2023-03-17T10:38:14.276Z,1380.00
2023-03-17T10:39:08.697Z,1408.00
2023-03-17T10:40:08.669Z,1244.00
2023-03-17T10:41:08.647Z,1336.00
2023-03-17T10:42:08.622Z,1280.00
2023-03-17T10:43:08.625Z,1264.00
2023-03-17T10:44:08.584Z,1368.00
2023-03-17T10:45:08.556Z,1388.00
2023-03-17T10:46:08.530Z,1304.00
2023-03-17T10:47:08.538Z,1308.00
2023-03-17T10:48:08.483Z,1396.00
2023-03-17T10:49:08.493Z,1452.00
2023-03-17T10:50:08.457Z,1420.00
2023-03-17T10:51:08.424Z,1288.00
2023-03-17T10:52:08.397Z,1492.00
2023-03-17T10:53:08.382Z,1544.00
2023-03-17T10:54:08.342Z,1568.00
2023-03-17T10:55:08.321Z,1572.00
2023-03-17T10:56:08.313Z,1604.00
2023-03-17T10:57:08.280Z,1692.00
2023-03-17T10:58:08.252Z,1332.00
2023-03-17T10:59:08.342Z,1584.00
2023-03-17T11:00:08.202Z,1504.00
2023-03-17T11:01:08.377Z,1420.00
2023-03-17T11:02:08.158Z,1596.00
2023-03-17T11:03:08.143Z,1488.00
2023-03-17T11:04:08.160Z,1700.00
2023-03-17T11:05:08.103Z,1672.00
2023-03-17T11:06:08.101Z,1664.00
2023-03-17T11:07:08.050Z,1636.00
2023-03-17T11:08:08.038Z,1356.00
2023-03-17T11:09:08.012Z,1512.00
2023-03-17T11:10:07.975Z,1500.00
2023-03-17T11:11:07.970Z,1496.00
2023-03-17T11:12:07.936Z,1448.00
2023-03-17T11:13:07.932Z,1396.00
2023-03-17T11:14:07.893Z,1320.00
2023-03-17T11:15:07.873Z,1480.00
2023-03-17T11:16:07.892Z,1504.00
2023-03-17T11:17:07.828Z,1600.00
2023-03-17T11:18:07.801Z,1392.00
2023-03-17T11:19:07.777Z,1416.00
2023-03-17T11:20:07.755Z,1444.00
2023-03-17T11:21:07.735Z,1508.00
2023-03-17T11:22:07.731Z,1424.00
2023-03-17T11:23:07.698Z,1540.00
2023-03-17T11:24:07.668Z,1656.00
2023-03-17T11:25:07.641Z,1516.00
2023-03-17T11:26:07.624Z,1312.00
2023-03-17T11:27:07.593Z,1496.00
2023-03-17T11:28:07.575Z,1468.00
2023-03-17T11:29:07.549Z,1372.00
2023-03-17T11:30:07.552Z,1616.00
2023-03-17T11:31:07.516Z,1800.00
2023-03-17T11:32:07.544Z,1832.00
2023-03-17T11:33:07.510Z,1324.00
2023-03-17T11:34:07.438Z,1196.00
2023-03-17T11:35:07.425Z,1300.00
2023-03-17T11:36:07.426Z,1372.00
2023-03-17T11:37:07.366Z,1284.00
2023-03-17T11:38:07.371Z,1392.00
2023-03-17T11:39:07.324Z,1740.00
2023-03-17T11:40:07.314Z,1648.00
2023-03-17T11:41:07.279Z,1712.00
2023-03-17T11:42:07.312Z,1704.00
2023-03-17T11:43:07.242Z,1624.00
2023-03-17T11:44:07.219Z,1548.00
2023-03-17T11:45:07.206Z,1412.00
2023-03-17T11:46:07.248Z,1588.00
2023-03-17T11:47:07.165Z,1560.00
2023-03-17T11:48:07.127Z,1500.00
2023-03-17T11:49:07.100Z,1396.00
2023-03-17T11:50:07.078Z,1476.00
2023-03-17T11:51:07.060Z,1292.00
2023-03-17T11:52:07.034Z,1456.00
2023-03-17T11:53:07.008Z,1432.00
2023-03-17T11:54:07.011Z,1480.00
2023-03-17T11:55:06.966Z,1500.00
2023-03-17T11:56:06.952Z,1128.00
2023-03-17T11:57:06.924Z,1296.00
2023-03-17T11:58:06.903Z,1280.00
2023-03-17T11:59:06.890Z,1252.00
2023-03-17T12:00:06.871Z,1232.00
2023-03-17T12:01:06.829Z,1380.00
2023-03-17T12:02:06.823Z,1316.00
2023-03-17T12:03:06.812Z,1480.00
2023-03-17T12:04:06.922Z,1504.00
2023-03-17T12:05:06.749Z,1280.00
2023-03-17T12:06:06.719Z,1096.00
2023-03-17T12:07:06.696Z,988.00
2023-03-17T12:08:06.688Z,976.00
2023-03-17T12:09:06.663Z,1016.00
2023-03-17T12:10:06.655Z,1024.00
2023-03-17T12:11:06.612Z,992.00
2023-03-17T12:12:06.588Z,1040.00
2023-03-17T12:13:06.562Z,1088.00
2023-03-17T12:14:06.544Z,1104.00
2023-03-17T12:15:06.522Z,1136.00
2023-03-17T12:16:06.644Z,1132.00
2023-03-17T12:17:06.506Z,1144.00
2023-03-17T12:18:06.454Z,1132.00
2023-03-17T12:19:06.434Z,1120.00
2023-03-17T12:20:06.417Z,1088.00
2023-03-17T12:21:06.388Z,1108.00
2023-03-17T12:22:06.368Z,1156.00
2023-03-17T12:23:06.339Z,1124.00
2023-03-17T12:24:06.326Z,1240.00
2023-03-17T12:25:06.299Z,1208.00
2023-03-17T12:26:06.295Z,1168.00
2023-03-17T12:27:06.258Z,1096.00
2023-03-17T12:28:06.234Z,1000.00
2023-03-17T12:29:06.210Z,936.00
2023-03-17T12:30:06.193Z,936.00
2023-03-17T12:31:06.241Z,948.00
2023-03-17T12:32:06.143Z,952.00
2023-03-17T12:33:06.173Z,984.00
2023-03-17T12:34:06.102Z,1008.00
2023-03-17T12:35:06.084Z,1020.00
2023-03-17T12:36:06.142Z,1020.00
2023-03-17T12:37:06.031Z,992.00
2023-03-17T12:38:06.003Z,968.00
2023-03-17T12:39:05.996Z,932.00
2023-03-17T12:40:05.971Z,900.00
2023-03-17T12:41:05.952Z,868.00
2023-03-17T12:42:05.934Z,880.00
2023-03-17T12:43:05.896Z,860.00
2023-03-17T12:44:05.880Z,832.00
2023-03-17T12:45:05.854Z,808.00